Terminal Aerodrome Forecast
Issued by NWS Sterling, VA

Current Version | Previous Version | Text Only | Print | Product List | Glossary Off
Versions: 1 2 3 4 5 6 7 8 9 10 11 12 13 14 15 16 17 18 19 20 21 22

000
FTUS41 KLWX 011123
TAFDCA
TAF
KDCA 011123Z 0112/0212 06006KT 5SM -RADZ BR OVC008
     FM011600 06005KT P6SM OVC008
     FM011800 12005KT P6SM OVC008
     FM020000 13005KT P6SM BKN035
     FM020200 17004KT P6SM SCT040
     FM020600 VRB03KT 5SM BR BKN015=

USA.gov is the U.S. government's official web portal to all federal, state and local government web resources and services.